createdAt,value
2022-11-10T00:00:38.518Z,99687.38
2022-11-10T00:03:24.530Z,99654.84
2022-11-10T00:06:10.492Z,99644.34
2022-11-10T00:08:56.346Z,99688.22
2022-11-10T00:11:42.710Z,99695.22
2022-11-10T00:14:46.995Z,99684.72
2022-11-10T00:17:36.903Z,99679.47
2022-11-10T00:20:22.953Z,99647.84
2022-11-10T00:23:08.919Z,99668.97
2022-11-10T00:25:55.029Z,99678.59
2022-11-10T00:28:41.477Z,99682.09
2022-11-10T00:31:31.419Z,99665.47
2022-11-10T00:34:17.975Z,99668.13
2022-11-10T00:37:04.185Z,99656.69
2022-11-10T00:39:49.813Z,99641.75
2022-11-10T00:42:35.470Z,99653.22
2022-11-10T00:45:22.122Z,99658.44
2022-11-10T00:48:07.850Z,99660.16
2022-11-10T00:50:53.643Z,99668.97
2022-11-10T00:53:39.534Z,99670.69
2022-11-10T00:56:25.658Z,99674.22
2022-11-10T00:59:11.733Z,99670.69
2022-11-10T01:01:57.274Z,99669.81
2022-11-10T01:04:43.010Z,99650.50
2022-11-10T01:07:30.497Z,99653.22
2022-11-10T01:10:16.486Z,99611.91
2022-11-10T01:13:01.910Z,99675.94
2022-11-10T01:15:47.469Z,99616.25
2022-11-10T01:18:34.329Z,99668.94
2022-11-10T01:21:24.288Z,99640.03
2022-11-10T01:24:09.832Z,99652.28
2022-11-10T01:26:55.628Z,99613.66
2022-11-10T01:29:40.986Z,99652.28
2022-11-10T01:32:26.362Z,99640.03
2022-11-10T01:35:11.950Z,99638.25
2022-11-10T01:38:02.289Z,99645.25
2022-11-10T01:40:48.863Z,99598.69
2022-11-10T01:43:35.751Z,99663.63
2022-11-10T01:46:21.087Z,99669.75
2022-11-10T01:49:07.139Z,99654.00
2022-11-10T01:52:01.513Z,99647.00
2022-11-10T01:54:49.921Z,99617.94
2022-11-10T01:57:38.647Z,99619.72
2022-11-10T02:00:24.740Z,99590.78
2022-11-10T02:03:13.626Z,99621.50
2022-11-10T02:06:00.511Z,99656.63
2022-11-10T02:08:47.961Z,99646.09
2022-11-10T02:11:35.692Z,99628.56
2022-11-10T02:14:25.276Z,99641.66
2022-11-10T02:17:18.074Z,99631.16
2022-11-10T02:20:15.569Z,99615.31
2022-11-10T02:23:12.330Z,99623.19
2022-11-10T02:25:58.533Z,99614.41
2022-11-10T02:28:44.267Z,99645.97
2022-11-10T02:31:29.709Z,99616.06
2022-11-10T02:34:16.029Z,99612.59
2022-11-10T02:37:02.698Z,99638.91
2022-11-10T02:39:55.896Z,99651.13
2022-11-10T02:42:41.804Z,99632.69
2022-11-10T02:45:27.507Z,99634.50
2022-11-10T02:48:15.092Z,99638.91
2022-11-10T02:51:00.960Z,99640.50
2022-11-10T02:53:50.253Z,99645.88
2022-11-10T02:56:36.317Z,99618.59
2022-11-10T02:59:22.311Z,99644.13
2022-11-10T03:02:08.177Z,99601.91
2022-11-10T03:04:53.788Z,99640.53
2022-11-10T03:07:39.386Z,99633.50
2022-11-10T03:10:26.258Z,99651.09
2022-11-10T03:13:11.908Z,99596.56
2022-11-10T03:15:57.619Z,99659.78
2022-11-10T03:18:43.550Z,99634.31
2022-11-10T03:21:29.160Z,99654.50
2022-11-10T03:24:14.653Z,99642.25
2022-11-10T03:27:00.188Z,99637.78
2022-11-10T03:29:46.288Z,99640.38
2022-11-10T03:32:32.172Z,99592.97
2022-11-10T03:35:17.716Z,99655.31
2022-11-10T03:38:03.964Z,99645.59
2022-11-10T03:43:58.089Z,99650.84
2022-11-10T03:46:45.947Z,99656.97
2022-11-10T03:49:34.716Z,99649.97
2022-11-10T03:52:20.491Z,99644.59
2022-11-10T03:55:07.252Z,99659.53
2022-11-10T03:57:52.875Z,99636.66
2022-11-10T04:00:38.514Z,99647.22
2022-11-10T04:03:24.578Z,99619.03
2022-11-10T04:06:30.434Z,99642.75
2022-11-10T04:09:16.129Z,99613.75
2022-11-10T04:12:24.651Z,99633.06
2022-11-10T04:15:30.477Z,99608.41
2022-11-10T04:18:24.671Z,99638.31
2022-11-10T04:21:09.925Z,99622.38
2022-11-10T04:23:55.506Z,99627.66
2022-11-10T04:26:42.987Z,99641.63
2022-11-10T04:29:31.024Z,99633.66
2022-11-10T04:32:16.761Z,99646.72
2022-11-10T04:35:02.294Z,99613.44
2022-11-10T04:37:48.232Z,99631.88
2022-11-10T04:40:33.958Z,99603.75
2022-11-10T04:43:19.784Z,99616.03
2022-11-10T04:46:07.286Z,99640.63
2022-11-10T04:48:55.197Z,99648.47
2022-11-10T04:51:42.022Z,99642.19
2022-11-10T04:54:27.661Z,99649.19
2022-11-10T04:57:13.602Z,99655.22
2022-11-10T04:59:59.363Z,99674.50
2022-11-10T05:02:44.909Z,99652.63
2022-11-10T05:05:31.411Z,99672.75
2022-11-10T05:08:17.084Z,99670.88
2022-11-10T05:11:04.885Z,99631.25
2022-11-10T05:13:50.435Z,99685.69
2022-11-10T05:16:37.735Z,99666.34
2022-11-10T05:19:23.547Z,99657.66
2022-11-10T05:22:09.450Z,99664.44
2022-11-10T05:24:55.427Z,99682.06
2022-11-10T05:27:41.606Z,99640.47
2022-11-10T05:30:27.842Z,99631.63
2022-11-10T05:33:28.145Z,99692.31
2022-11-10T05:36:14.769Z,99684.34
2022-11-10T05:39:01.049Z,99664.19
2022-11-10T05:41:47.252Z,99663.22
2022-11-10T05:44:33.048Z,99653.38
2022-11-10T05:47:18.735Z,99662.19
2022-11-10T05:50:05.960Z,99600.56
2022-11-10T05:52:53.663Z,99675.28
2022-11-10T05:55:39.708Z,99612.03
2022-11-10T05:58:29.303Z,99661.16
2022-11-10T06:01:15.552Z,99534.47
2022-11-10T06:04:01.448Z,99563.53
2022-11-10T06:06:47.328Z,99689.25
2022-11-10T06:09:32.856Z,99682.44
2022-11-10T06:12:18.972Z,99628.09
2022-11-10T06:15:06.186Z,99673.84
2022-11-10T06:17:52.371Z,99654.69
2022-11-10T06:20:38.541Z,99631.81
2022-11-10T06:23:25.112Z,99627.56
2022-11-10T06:26:17.970Z,99543.97
2022-11-10T06:29:20.464Z,99491.28
2022-11-10T06:32:21.742Z,99660.47
2022-11-10T06:35:27.619Z,99589.16
2022-11-10T06:38:18.704Z,99492.25
2022-11-10T06:41:24.118Z,99598.59
2022-11-10T06:44:12.308Z,99672.38
2022-11-10T06:46:58.140Z,99672.44
2022-11-10T06:49:43.563Z,99682.91
2022-11-10T06:52:31.767Z,99633.75
2022-11-10T06:55:17.519Z,99588.09
2022-11-10T06:58:03.280Z,99678.53
2022-11-10T07:00:49.132Z,99683.84
2022-11-10T07:03:38.865Z,99660.13
2022-11-10T07:06:36.092Z,99616.25
2022-11-10T07:09:26.151Z,99610.91
2022-11-10T07:12:23.004Z,99577.44
2022-11-10T07:15:11.433Z,99667.34
2022-11-10T07:17:58.550Z,99588.09
2022-11-10T07:20:49.883Z,99669.22
2022-11-10T07:23:36.693Z,99526.84
2022-11-10T07:26:22.449Z,99662.47
2022-11-10T07:29:08.349Z,99673.09
2022-11-10T07:31:54.075Z,99664.41
2022-11-10T07:34:40.794Z,99628.41
2022-11-10T07:37:26.763Z,99650.50
2022-11-10T07:40:12.517Z,99659.38
2022-11-10T07:42:59.040Z,99652.31
2022-11-10T07:45:44.733Z,99675.25
2022-11-10T07:48:30.375Z,99670.28
2022-11-10T07:51:15.964Z,99645.06
2022-11-10T07:54:01.703Z,99644.31
2022-11-10T07:56:47.433Z,99623.28
2022-11-10T07:59:33.432Z,99660.09
2022-11-10T08:02:19.502Z,99684.59
2022-11-10T08:05:05.799Z,99643.91
2022-11-10T08:07:53.454Z,99659.59
2022-11-10T08:10:40.666Z,99671.78
2022-11-10T08:13:26.438Z,99669.88
2022-11-10T08:16:11.840Z,99642.69
2022-11-10T08:18:57.864Z,99623.31
2022-11-10T08:21:43.766Z,99644.53
2022-11-10T08:24:29.322Z,99664.81
2022-11-10T08:27:14.739Z,99661.16
2022-11-10T08:30:00.992Z,99689.41
2022-11-10T08:32:46.719Z,99690.31
2022-11-10T08:36:10.389Z,99671.00
2022-11-10T08:38:56.271Z,99678.91
2022-11-10T08:42:27.286Z,99664.84
2022-11-10T08:48:23.319Z,99599.88
2022-11-10T08:51:09.603Z,99665.78
2022-11-10T08:53:55.282Z,99666.75
2022-11-10T08:56:40.852Z,99619.22
2022-11-10T08:59:26.549Z,99679.03
2022-11-10T09:02:11.977Z,99639.47
2022-11-10T09:04:58.072Z,99659.78
2022-11-10T09:07:48.395Z,99656.44
2022-11-10T09:10:35.566Z,99659.97
2022-11-10T09:13:29.613Z,99645.06
2022-11-10T09:16:21.707Z,99672.34
2022-11-10T09:19:07.603Z,99656.66
2022-11-10T09:22:04.278Z,99663.72
2022-11-10T09:24:51.559Z,99632.06
2022-11-10T09:27:38.588Z,99668.16
2022-11-10T09:30:25.595Z,99647.97
2022-11-10T09:33:11.063Z,99661.25
2022-11-10T09:36:00.307Z,99612.09
2022-11-10T09:38:45.845Z,99677.06
2022-11-10T09:41:31.281Z,99657.84
2022-11-10T09:44:27.937Z,99665.78
2022-11-10T09:47:50.543Z,99663.16
2022-11-10T09:51:08.401Z,99647.38
2022-11-10T09:54:05.990Z,99638.78
2022-11-10T09:57:00.403Z,99635.34
2022-11-10T09:59:46.093Z,99594.13
2022-11-10T10:02:50.725Z,99643.34
2022-11-10T10:06:03.664Z,99643.41
2022-11-10T10:09:08.226Z,99642.53
2022-11-10T10:12:12.572Z,99653.06
2022-11-10T10:15:35.432Z,99641.59
2022-11-10T10:18:56.032Z,99618.72
2022-11-10T10:22:11.046Z,99638.03
2022-11-10T10:25:02.312Z,99631.91
2022-11-10T10:27:54.514Z,99623.09
2022-11-10T10:30:41.697Z,99634.53
2022-11-10T10:33:28.426Z,99634.56
2022-11-10T10:36:22.512Z,99635.44
2022-11-10T10:39:16.662Z,99640.69
2022-11-10T10:42:01.993Z,99652.13
2022-11-10T10:45:15.493Z,99652.13
2022-11-10T10:48:02.345Z,99651.28
2022-11-10T10:50:49.299Z,99649.50
2022-11-10T10:53:48.465Z,99639.91
2022-11-10T10:56:34.879Z,99647.75
2022-11-10T10:59:23.897Z,99621.44
2022-11-10T11:02:32.033Z,99649.50
2022-11-10T11:05:19.967Z,99648.66
2022-11-10T11:08:05.879Z,99650.41
2022-11-10T11:10:51.445Z,99639.88
2022-11-10T11:13:37.243Z,99610.03
2022-11-10T11:16:22.887Z,99631.13
2022-11-10T11:19:10.231Z,99628.47
2022-11-10T11:22:14.608Z,99615.34
2022-11-10T11:25:23.199Z,99627.59
2022-11-10T11:28:34.455Z,99615.31
2022-11-10T11:32:01.761Z,99611.81
2022-11-10T11:35:05.916Z,99621.44
2022-11-10T11:38:07.370Z,99624.06
2022-11-10T11:41:24.376Z,99596.00
2022-11-10T11:44:33.294Z,99643.34
2022-11-10T11:47:27.951Z,99653.88
2022-11-10T11:50:30.371Z,99641.63
2022-11-10T11:53:51.218Z,99634.56
2022-11-10T11:56:46.969Z,99652.13
2022-11-10T11:59:53.731Z,99646.00
2022-11-10T12:02:42.196Z,99645.13
2022-11-10T12:05:46.316Z,99642.50
2022-11-10T12:08:59.280Z,99588.97
2022-11-10T12:12:12.293Z,99619.69
2022-11-10T12:15:03.542Z,99637.22
2022-11-10T12:18:03.992Z,99631.97
2022-11-10T12:21:12.276Z,99638.09
2022-11-10T12:24:16.063Z,99636.31
2022-11-10T12:27:13.833Z,99605.59
2022-11-10T12:30:06.370Z,99624.03
2022-11-10T12:33:04.514Z,99622.28
2022-11-10T12:35:54.018Z,99613.44
2022-11-10T12:38:59.411Z,99643.31
2022-11-10T12:41:58.209Z,99656.41
2022-11-10T12:44:53.863Z,99680.94
2022-11-10T12:47:45.017Z,99669.50
2022-11-10T12:50:36.720Z,99662.44
2022-11-10T12:53:39.780Z,99645.72
2022-11-10T12:56:40.601Z,99572.75
2022-11-10T13:00:12.788Z,99530.59
2022-11-10T13:07:13.307Z,99530.44
2022-11-10T13:10:45.336Z,99626.97
2022-11-10T13:14:00.624Z,99702.56
2022-11-10T13:16:50.116Z,99656.84
2022-11-10T13:19:39.069Z,99679.72
2022-11-10T13:22:34.178Z,99665.59
2022-11-10T13:30:15.098Z,99698.94
2022-11-10T13:33:52.452Z,99698.94
2022-11-10T13:37:22.330Z,99535.41
2022-11-10T13:41:00.976Z,99713.75
2022-11-10T13:44:29.965Z,99590.69
2022-11-10T13:55:20.033Z,99719.84
2022-11-10T14:11:36.652Z,99722.41
2022-11-10T14:22:01.047Z,99624.78
2022-11-10T14:25:27.002Z,99616.06
2022-11-10T14:28:30.849Z,99715.38
2022-11-10T14:31:23.281Z,99648.56
2022-11-10T14:34:16.251Z,99654.84
2022-11-10T14:37:03.563Z,99681.19
2022-11-10T14:39:54.825Z,99573.94
2022-11-10T14:42:41.804Z,99589.75
2022-11-10T14:45:29.186Z,99630.13
2022-11-10T14:59:21.085Z,99666.75
2022-11-10T15:02:15.308Z,99575.41
2022-11-10T15:05:04.166Z,99684.28
2022-11-10T15:07:56.270Z,99711.53
2022-11-10T15:10:48.772Z,99730.00
2022-11-10T15:13:39.331Z,99634.97
2022-11-10T15:16:38.804Z,99692.06
2022-11-10T15:19:30.177Z,99734.19
2022-11-10T15:22:15.817Z,99739.47
2022-11-10T15:25:10.456Z,99749.94
2022-11-10T15:28:03.185Z,99700.78
2022-11-10T15:30:54.704Z,99706.91
2022-11-10T15:33:47.392Z,99650.59
2022-11-10T15:36:39.844Z,99722.66
2022-11-10T15:39:27.451Z,99712.19
2022-11-10T15:42:16.314Z,99713.03
2022-11-10T15:45:02.165Z,99724.44
2022-11-10T15:47:48.151Z,99713.84
2022-11-10T15:50:33.780Z,99710.31
2022-11-10T15:53:28.113Z,99738.38
2022-11-10T15:56:19.240Z,99718.22
2022-11-10T15:59:05.012Z,99741.91
2022-11-10T16:01:51.076Z,99731.38
2022-11-10T16:04:36.675Z,99715.44
2022-11-10T16:07:22.612Z,99727.84
2022-11-10T16:10:09.159Z,99690.84
2022-11-10T16:12:58.535Z,99737.44
2022-11-10T16:16:09.854Z,99687.28
2022-11-10T16:19:23.644Z,99590.53
2022-11-10T16:22:27.846Z,99535.91
2022-11-10T16:25:31.420Z,99732.91
2022-11-10T16:28:25.997Z,99522.81
2022-11-10T16:31:13.371Z,99643.28
2022-11-10T16:34:04.798Z,99620.25
2022-11-10T16:36:53.984Z,99692.38
2022-11-10T16:40:01.928Z,99724.91
2022-11-10T16:42:47.918Z,99709.13
2022-11-10T16:45:34.090Z,99704.50
2022-11-10T16:48:23.882Z,99716.09
2022-11-10T16:51:09.979Z,99701.03
2022-11-10T16:53:56.372Z,99700.97
2022-11-10T16:56:42.005Z,99671.97
2022-11-10T16:59:27.416Z,99726.50
2022-11-10T17:02:25.586Z,99690.31
2022-11-10T17:05:16.074Z,99730.84
2022-11-10T17:08:04.210Z,99713.09
2022-11-10T17:10:52.068Z,99725.38
2022-11-10T17:13:39.624Z,99725.47
2022-11-10T17:16:25.305Z,99737.78
2022-11-10T17:19:19.150Z,99745.63
2022-11-10T17:22:05.549Z,99732.47
2022-11-10T17:24:56.483Z,99734.25
2022-11-10T17:27:43.150Z,99740.38
2022-11-10T17:30:29.003Z,99718.34
2022-11-10T17:33:14.847Z,99741.22
2022-11-10T17:36:02.357Z,99701.59
2022-11-10T17:38:49.121Z,99746.47
2022-11-10T17:41:35.260Z,99726.34
2022-11-10T17:44:21.055Z,99736.88
2022-11-10T17:47:07.584Z,99744.66
2022-11-10T17:49:53.520Z,99732.47
2022-11-10T17:52:42.748Z,99723.69
2022-11-10T17:55:34.166Z,99743.00
2022-11-10T17:58:20.535Z,99741.28
2022-11-10T18:01:22.291Z,99669.13
2022-11-10T18:04:14.357Z,99749.13
2022-11-10T18:07:01.600Z,99654.13
2022-11-10T18:09:48.700Z,99662.16
2022-11-10T18:12:34.280Z,99731.66
2022-11-10T18:15:19.974Z,99722.97
2022-11-10T18:18:06.483Z,99716.88
2022-11-10T18:20:54.270Z,99722.13
2022-11-10T18:23:42.719Z,99716.81
2022-11-10T18:26:37.405Z,99729.16
2022-11-10T18:29:23.001Z,99730.84
2022-11-10T18:32:09.433Z,99685.22
2022-11-10T18:34:55.913Z,99710.72
2022-11-10T18:37:43.096Z,99736.25
2022-11-10T18:40:28.410Z,99730.97
2022-11-10T18:43:14.253Z,99748.50
2022-11-10T18:45:59.994Z,99732.75
2022-11-10T18:48:46.624Z,99730.13
2022-11-10T18:51:32.932Z,99707.31
2022-11-10T18:54:19.294Z,99681.81
2022-11-10T18:57:05.450Z,99729.34
2022-11-10T18:59:50.997Z,99731.06
2022-11-10T19:02:37.719Z,99696.78
2022-11-10T19:05:23.741Z,99713.34
2022-11-10T19:08:09.484Z,99731.06
2022-11-10T19:10:57.406Z,99692.41
2022-11-10T19:13:43.867Z,99718.84
2022-11-10T19:16:30.987Z,99708.22
2022-11-10T19:19:17.280Z,99685.47
2022-11-10T19:22:04.008Z,99697.75
2022-11-10T19:25:07.109Z,99689.75
2022-11-10T19:27:53.783Z,99720.63
2022-11-10T19:30:40.211Z,99659.91
2022-11-10T19:33:26.191Z,99699.50
2022-11-10T19:36:14.178Z,99727.69
2022-11-10T19:39:00.247Z,99666.09
2022-11-10T19:41:46.149Z,99729.44
2022-11-10T19:44:33.561Z,99717.19
2022-11-10T19:47:19.258Z,99725.06
2022-11-10T19:50:05.310Z,99706.66
2022-11-10T19:52:51.116Z,99717.19
2022-11-10T19:55:37.010Z,99723.38
2022-11-10T19:58:22.416Z,99705.84
2022-11-10T20:01:10.335Z,99732.97
2022-11-10T20:03:56.013Z,99724.28
2022-11-10T20:06:41.994Z,99697.84
2022-11-10T20:09:27.499Z,99692.63
2022-11-10T20:12:13.191Z,99726.81
2022-11-10T20:14:58.748Z,99706.59
2022-11-10T20:17:44.634Z,99696.00
2022-11-10T20:20:30.159Z,99722.38
2022-11-10T20:23:16.818Z,99767.94
2022-11-10T20:26:03.239Z,99726.88
2022-11-10T20:28:49.551Z,99715.31
2022-11-10T20:31:37.059Z,99692.53
2022-11-10T20:34:23.858Z,99697.72
2022-11-10T20:37:09.316Z,99710.84
2022-11-10T20:39:54.930Z,99682.72
2022-11-10T20:42:42.809Z,99736.41
2022-11-10T20:45:28.662Z,99723.19
2022-11-10T20:48:14.878Z,99724.81
2022-11-10T20:51:01.542Z,99680.91
2022-11-10T20:53:48.107Z,99726.72
2022-11-10T20:56:33.803Z,99703.81
2022-11-10T20:59:19.540Z,99704.66
2022-11-10T21:02:05.357Z,99736.31
2022-11-10T21:04:50.731Z,99704.69
2022-11-10T21:07:36.002Z,99742.50
2022-11-10T21:10:21.527Z,99725.81
2022-11-10T21:13:06.973Z,99741.59
2022-11-10T21:15:55.516Z,99735.44
2022-11-10T21:18:40.782Z,99736.34
2022-11-10T21:21:34.118Z,99737.22
2022-11-10T21:24:20.523Z,99729.28
2022-11-10T21:27:05.862Z,99732.81
2022-11-10T21:29:51.286Z,99732.78
2022-11-10T21:32:36.788Z,99729.28
2022-11-10T21:35:24.714Z,99690.59
2022-11-10T21:38:12.634Z,99730.13
2022-11-10T21:40:58.442Z,99746.84
2022-11-10T21:43:44.250Z,99745.06
2022-11-10T21:46:29.979Z,99741.56
2022-11-10T21:49:15.149Z,99735.44
2022-11-10T21:52:00.391Z,99697.53
2022-11-10T21:54:45.721Z,99737.19
2022-11-10T21:57:31.163Z,99726.56
2022-11-10T22:00:17.145Z,99741.56
2022-11-10T22:03:03.841Z,99751.16
2022-11-10T22:05:49.012Z,99743.25
2022-11-10T22:08:36.496Z,99757.28
2022-11-10T22:11:40.666Z,99757.28
2022-11-10T22:14:44.695Z,99749.38
2022-11-10T22:17:50.305Z,99737.09
2022-11-10T22:20:36.123Z,99757.22
2022-11-10T22:23:41.836Z,99726.47
2022-11-10T22:26:27.589Z,99736.97
2022-11-10T22:29:13.084Z,99755.38
2022-11-10T22:31:59.995Z,99746.59
2022-11-10T22:34:45.904Z,99683.25
2022-11-10T22:37:33.246Z,99724.59
2022-11-10T22:40:37.949Z,99747.47
2022-11-10T22:43:42.327Z,99740.44
2022-11-10T22:46:28.650Z,99699.13
2022-11-10T22:49:15.853Z,99737.06
2022-11-10T22:52:01.570Z,99740.53
2022-11-10T22:54:47.143Z,99723.81
2022-11-10T22:57:32.360Z,99727.34
2022-11-10T23:00:18.046Z,99711.50
2022-11-10T23:03:04.075Z,99722.03
2022-11-10T23:05:56.255Z,99742.28
2022-11-10T23:08:42.916Z,99750.13
2022-11-10T23:11:30.990Z,99756.22
2022-11-10T23:14:16.599Z,99704.41
2022-11-10T23:17:02.201Z,99742.22
2022-11-10T23:19:47.726Z,99726.34
2022-11-10T23:22:33.363Z,99751.88
2022-11-10T23:25:18.872Z,99745.75
2022-11-10T23:28:04.575Z,99747.47
2022-11-10T23:30:50.291Z,99734.41
2022-11-10T23:33:37.593Z,99741.38
2022-11-10T23:36:24.735Z,99743.16
2022-11-10T23:39:10.097Z,99717.66
2022-11-10T23:41:55.771Z,99718.56
2022-11-10T23:44:41.162Z,99739.69
2022-11-10T23:47:27.289Z,99737.94
2022-11-10T23:50:12.898Z,99716.94
2022-11-10T23:52:58.121Z,99730.88
2022-11-10T23:55:46.114Z,99742.31
2022-11-10T23:58:32.639Z,99733.56
